Time;durP1;ratioP1;P1;durP2;ratioP2;P2;SDS_P1;SDS_P2;PMS_P1;PMS_P2;Temp;Humidity;BMP_temperature;BMP_pressure;BME280_temperature;BME280_humidity;BME280_pressure;Samples;Min_cycle;Max_cycle;Signal;HPM_P1;HPM_P2
2021/12/23 00:01:09;;;;;;;72.65;37.45;;;;;;;;;;5012821;28;20053;-86
2021/12/23 00:03:34;;;;;;;72.30;36.22;;;;;;;;;;4998929;28;20079;-85
2021/12/23 00:06:00;;;;;;;66.80;34.35;;;;;;;;;;4995032;28;20133;-85
2021/12/23 00:08:25;;;;;;;65.07;35.88;;;;;;;;;;5012571;28;20101;-85
2021/12/23 00:10:50;;;;;;;69.45;34.63;;;;;;;;;;5012400;28;20062;-86
2021/12/23 00:13:16;;;;;;;69.78;36.45;;;;;;;;;;4994767;28;20355;-85
2021/12/23 00:18:41;;;;;;;64.05;35.75;;;;;;;;;;5013077;28;20026;-86
2021/12/23 00:23:53;;;;;;;68.28;36.70;;;;;;;;;;5012961;28;20083;-86
2021/12/23 00:26:19;;;;;;;70.75;36.15;;;;;;;;;;5012488;28;20022;-86
2021/12/23 00:28:44;;;;;;;68.78;35.05;;;;;;;;;;4994925;28;20869;-86
2021/12/23 00:31:09;;;;;;;69.50;35.70;;;;;;;;;;5012592;28;20034;-86
2021/12/23 00:33:36;;;;;;;73.90;36.13;;;;;;;;;;4994641;28;20469;-86
2021/12/23 00:36:04;;;;;;;68.43;34.17;;;;;;;;;;5012478;28;20261;-86
2021/12/23 00:38:33;;;;;;;71.97;36.85;;;;;;;;;;4994423;28;20032;-85
2021/12/23 00:41:01;;;;;;;69.85;36.10;;;;;;;;;;5012376;28;20489;-86
2021/12/23 00:43:26;;;;;;;69.32;37.15;;;;;;;;;;5012202;28;20049;-85
2021/12/23 00:45:51;;;;;;;66.57;34.92;;;;;;;;;;4994777;28;20053;-86
2021/12/23 00:48:17;;;;;;;69.50;37.33;;;;;;;;;;5011018;28;20481;-86
2021/12/23 00:50:42;;;;;;;70.22;36.53;;;;;;;;;;5012321;28;20030;-85
2021/12/23 00:53:09;;;;;;;74.10;36.60;;;;;;;;;;5012111;28;20866;-86
2021/12/23 00:55:34;;;;;;;71.88;36.72;;;;;;;;;;5011976;28;20021;-86
2021/12/23 00:58:00;;;;;;;64.65;34.22;;;;;;;;;;5011807;28;20053;-86
2021/12/23 01:00:26;;;;;;;74.90;38.05;;;;;;;;;;5012116;28;20433;-86
2021/12/23 01:02:51;;;;;;;68.10;37.42;;;;;;;;;;5011658;28;20494;-85
2021/12/23 01:05:18;;;;;;;68.45;34.85;;;;;;;;;;4994282;28;20026;-85
2021/12/23 01:07:43;;;;;;;66.88;34.60;;;;;;;;;;4994756;28;20018;-85
2021/12/23 01:10:10;;;;;;;68.07;37.45;;;;;;;;;;5012373;28;20057;-85
2021/12/23 01:12:48;;;;;;;68.72;38.47;;;;;;;;;;4995053;28;20718;-86
2021/12/23 01:15:38;;;;;;;63.72;34.47;;;;;;;;;;4994703;28;20521;-86
2021/12/23 01:18:10;;;;;;;68.47;37.15;;;;;;;;;;5011682;28;20053;-85
2021/12/23 01:20:36;;;;;;;67.47;35.00;;;;;;;;;;5012371;28;20389;-85
2021/12/23 01:23:01;;;;;;;64.97;33.17;;;;;;;;;;5012562;28;20025;-85
2021/12/23 01:25:27;;;;;;;62.78;31.88;;;;;;;;;;4994315;28;20033;-85
2021/12/23 01:27:53;;;;;;;66.35;34.88;;;;;;;;;;4994181;28;20484;-85
2021/12/23 01:30:18;;;;;;;64.28;34.20;;;;;;;;;;5011680;28;20041;-85
2021/12/23 01:32:44;;;;;;;64.45;34.17;;;;;;;;;;5011641;28;20673;-85
2021/12/23 01:35:10;;;;;;;67.15;36.50;;;;;;;;;;5011425;28;20363;-86
2021/12/23 01:37:35;;;;;;;63.60;34.45;;;;;;;;;;4993824;28;20037;-85
2021/12/23 01:40:00;;;;;;;64.68;34.13;;;;;;;;;;5011973;28;20092;-85
2021/12/23 01:42:26;;;;;;;70.93;37.38;;;;;;;;;;5011434;28;20682;-86
2021/12/23 01:44:51;;;;;;;58.67;31.03;;;;;;;;;;5011481;28;20030;-86
2021/12/23 01:47:16;;;;;;;65.78;33.13;;;;;;;;;;4994246;28;20276;-86
2021/12/23 01:49:41;;;;;;;59.70;31.75;;;;;;;;;;5012191;28;20045;-86
2021/12/23 01:52:07;;;;;;;64.10;33.97;;;;;;;;;;4993614;28;20927;-86
2021/12/23 01:54:32;;;;;;;57.55;30.60;;;;;;;;;;4993715;28;20261;-86
2021/12/23 01:56:57;;;;;;;62.20;33.15;;;;;;;;;;5011544;28;20104;-86
2021/12/23 01:59:23;;;;;;;62.28;33.08;;;;;;;;;;5010366;28;20129;-86
2021/12/23 02:01:48;;;;;;;63.42;33.95;;;;;;;;;;4992823;28;20036;-86
2021/12/23 02:04:14;;;;;;;68.10;34.53;;;;;;;;;;5010448;28;20022;-86
2021/12/23 02:06:39;;;;;;;60.78;34.67;;;;;;;;;;4993215;28;20609;-86
2021/12/23 02:09:04;;;;;;;66.77;35.90;;;;;;;;;;5011106;28;20105;-86
2021/12/23 02:11:29;;;;;;;63.60;32.33;;;;;;;;;;5010462;28;20744;-86
2021/12/23 02:13:55;;;;;;;68.10;34.75;;;;;;;;;;5010711;28;20273;-86
2021/12/23 02:16:20;;;;;;;70.32;35.47;;;;;;;;;;4992924;28;20040;-86
2021/12/23 02:18:45;;;;;;;61.92;35.78;;;;;;;;;;4993287;28;20026;-86
2021/12/23 02:21:10;;;;;;;66.18;35.33;;;;;;;;;;5011284;28;20096;-86
2021/12/23 02:23:36;;;;;;;71.15;37.72;;;;;;;;;;5001559;28;20026;-86
2021/12/23 02:26:01;;;;;;;63.63;33.17;;;;;;;;;;5010648;28;20053;-86
2021/12/23 02:28:27;;;;;;;64.60;35.58;;;;;;;;;;4992889;28;20053;-86
2021/12/23 02:30:53;;;;;;;66.68;37.25;;;;;;;;;;5010711;28;20488;-86
2021/12/23 02:33:19;;;;;;;60.50;33.90;;;;;;;;;;4995799;28;20042;-85
2021/12/23 02:35:45;;;;;;;65.00;34.33;;;;;;;;;;5010724;28;20018;-86
2021/12/23 02:38:10;;;;;;;62.90;35.50;;;;;;;;;;5010329;28;20025;-86
2021/12/23 02:40:36;;;;;;;58.88;32.28;;;;;;;;;;5010553;28;20807;-86
2021/12/23 02:43:17;;;;;;;59.60;33.00;;;;;;;;;;5011774;28;20072;-86
2021/12/23 02:45:43;;;;;;;70.32;36.17;;;;;;;;;;5010637;28;20024;-86
2021/12/23 02:48:13;;;;;;;64.05;36.47;;;;;;;;;;5010707;28;20049;-86
2021/12/23 02:50:38;;;;;;;68.55;35.90;;;;;;;;;;5000109;28;20066;-86
2021/12/23 02:53:03;;;;;;;61.78;35.38;;;;;;;;;;5010862;28;20025;-86
2021/12/23 02:55:29;;;;;;;69.40;36.70;;;;;;;;;;5010883;28;20029;-86
2021/12/23 02:57:54;;;;;;;71.93;40.27;;;;;;;;;;5010841;28;20060;-86
2021/12/23 03:00:19;;;;;;;63.83;37.15;;;;;;;;;;5011270;28;20261;-86
2021/12/23 03:02:44;;;;;;;66.03;36.00;;;;;;;;;;4993606;28;20781;-86
2021/12/23 03:05:10;;;;;;;65.93;35.08;;;;;;;;;;5010785;28;20093;-86
2021/12/23 03:07:35;;;;;;;62.08;35.53;;;;;;;;;;5011023;28;20100;-86
2021/12/23 03:10:00;;;;;;;61.00;35.00;;;;;;;;;;5010127;28;20057;-86
2021/12/23 03:12:26;;;;;;;59.33;33.58;;;;;;;;;;5012409;28;20042;-86
2021/12/23 03:14:51;;;;;;;66.20;37.55;;;;;;;;;;4996720;28;20390;-86
2021/12/23 03:17:16;;;;;;;67.05;36.85;;;;;;;;;;4996968;28;20084;-86
2021/12/23 03:19:41;;;;;;;64.68;37.53;;;;;;;;;;5014198;28;20072;-86
2021/12/23 03:22:07;;;;;;;61.63;36.00;;;;;;;;;;4997106;28;20033;-86
2021/12/23 03:24:32;;;;;;;59.22;32.38;;;;;;;;;;5014242;28;20073;-86
2021/12/23 03:26:57;;;;;;;69.60;37.53;;;;;;;;;;5014243;28;20026;-86
2021/12/23 03:29:22;;;;;;;62.63;35.75;;;;;;;;;;5014316;28;20025;-86
2021/12/23 03:31:48;;;;;;;61.35;34.03;;;;;;;;;;5013886;28;20470;-85
2021/12/23 03:34:13;;;;;;;62.35;35.85;;;;;;;;;;5013921;28;20078;-86
2021/12/23 03:36:38;;;;;;;62.63;34.72;;;;;;;;;;4996657;28;20069;-86
2021/12/23 03:39:05;;;;;;;63.92;36.30;;;;;;;;;;5014277;28;20072;-86
2021/12/23 03:41:30;;;;;;;62.08;36.55;;;;;;;;;;5014013;28;20470;-86
2021/12/23 03:43:55;;;;;;;67.55;37.10;;;;;;;;;;4995759;28;20076;-86
2021/12/23 03:46:21;;;;;;;59.85;33.50;;;;;;;;;;4995894;28;20034;-86
2021/12/23 03:48:46;;;;;;;60.03;36.45;;;;;;;;;;4995740;28;20021;-85
2021/12/23 03:51:11;;;;;;;59.77;33.13;;;;;;;;;;5013787;28;20450;-86
2021/12/23 03:53:37;;;;;;;60.28;35.53;;;;;;;;;;4996197;28;20356;-86
2021/12/23 03:56:02;;;;;;;60.67;34.75;;;;;;;;;;5014114;28;20024;-86
2021/12/23 03:58:27;;;;;;;58.75;31.25;;;;;;;;;;4995749;28;20080;-86
2021/12/23 04:00:52;;;;;;;61.97;33.47;;;;;;;;;;5013674;28;20030;-86
2021/12/23 04:03:19;;;;;;;60.25;36.13;;;;;;;;;;5014037;28;20157;-86
2021/12/23 04:05:44;;;;;;;56.57;32.70;;;;;;;;;;5013791;28;20093;-86
2021/12/23 04:08:09;;;;;;;60.15;36.40;;;;;;;;;;5013588;28;20260;-86
2021/12/23 04:10:35;;;;;;;55.42;33.83;;;;;;;;;;5012695;28;20081;-86
2021/12/23 04:13:00;;;;;;;56.67;32.85;;;;;;;;;;5012829;28;20490;-86
2021/12/23 04:15:25;;;;;;;51.80;30.08;;;;;;;;;;5012580;28;20121;-86
2021/12/23 04:17:50;;;;;;;56.50;32.38;;;;;;;;;;5012567;28;20034;-86
2021/12/23 04:20:31;;;;;;;54.20;32.90;;;;;;;;;;4995230;28;20030;-86
2021/12/23 04:22:56;;;;;;;54.83;31.10;;;;;;;;;;5012436;28;20105;-85
2021/12/23 04:25:24;;;;;;;57.78;33.88;;;;;;;;;;5012447;28;20114;-86
2021/12/23 04:27:50;;;;;;;52.50;30.75;;;;;;;;;;5012291;28;20601;-86
2021/12/23 04:30:15;;;;;;;60.40;32.20;;;;;;;;;;5012720;28;20030;-85
2021/12/23 04:32:41;;;;;;;57.10;31.60;;;;;;;;;;5012647;28;20041;-86
2021/12/23 04:35:06;;;;;;;54.85;32.13;;;;;;;;;;5012579;28;20026;-86
2021/12/23 04:37:32;;;;;;;54.45;32.42;;;;;;;;;;5012251;28;20077;-86
2021/12/23 04:39:57;;;;;;;53.90;30.80;;;;;;;;;;4996813;28;20056;-86
2021/12/23 04:42:22;;;;;;;58.63;33.03;;;;;;;;;;5011924;28;20045;-86
2021/12/23 04:44:47;;;;;;;59.10;34.40;;;;;;;;;;4994213;28;20108;-86
2021/12/23 04:47:12;;;;;;;59.10;34.27;;;;;;;;;;5012357;28;20315;-86
2021/12/23 04:49:38;;;;;;;55.45;30.30;;;;;;;;;;4994255;28;20265;-86
2021/12/23 04:52:03;;;;;;;60.30;33.20;;;;;;;;;;5012013;28;20137;-86
2021/12/23 04:54:28;;;;;;;52.65;30.30;;;;;;;;;;4993981;28;20048;-86
2021/12/23 04:56:53;;;;;;;55.63;31.77;;;;;;;;;;5011696;28;20032;-86
2021/12/23 04:59:20;;;;;;;53.25;32.22;;;;;;;;;;5012049;28;20021;-86
2021/12/23 05:01:45;;;;;;;55.25;30.60;;;;;;;;;;5011938;28;20025;-86
2021/12/23 05:04:10;;;;;;;58.10;33.58;;;;;;;;;;5011785;28;20069;-86
2021/12/23 05:06:36;;;;;;;63.40;34.17;;;;;;;;;;5011990;28;20037;-86
2021/12/23 05:09:01;;;;;;;60.28;34.92;;;;;;;;;;4994122;28;20296;-86
2021/12/23 05:11:26;;;;;;;55.95;32.55;;;;;;;;;;4993695;28;20135;-86
2021/12/23 05:13:51;;;;;;;57.92;32.25;;;;;;;;;;4993773;28;20398;-86
2021/12/23 05:16:17;;;;;;;56.00;34.33;;;;;;;;;;5011552;28;20029;-86
2021/12/23 05:18:42;;;;;;;53.55;31.48;;;;;;;;;;5011727;28;20297;-86
2021/12/23 05:21:07;;;;;;;55.03;31.50;;;;;;;;;;5011799;28;20040;-85
2021/12/23 05:23:33;;;;;;;57.95;30.52;;;;;;;;;;5011202;28;20026;-86
2021/12/23 05:25:58;;;;;;;55.65;33.17;;;;;;;;;;4993482;28;20022;-85
2021/12/23 05:28:23;;;;;;;57.05;34.42;;;;;;;;;;5011285;28;20026;-86
2021/12/23 05:30:49;;;;;;;55.90;31.48;;;;;;;;;;4993368;28;20034;-86
2021/12/23 05:33:14;;;;;;;59.47;33.50;;;;;;;;;;5011432;28;20030;-86
2021/12/23 05:35:39;;;;;;;56.15;32.20;;;;;;;;;;5011126;28;20077;-86
2021/12/23 05:38:04;;;;;;;58.58;33.22;;;;;;;;;;5011330;28;20025;-86
2021/12/23 05:40:30;;;;;;;57.78;35.13;;;;;;;;;;5012006;28;20791;-86
2021/12/23 05:42:56;;;;;;;56.08;32.50;;;;;;;;;;5001121;28;20025;-85
2021/12/23 05:45:22;;;;;;;54.42;32.17;;;;;;;;;;4993990;28;20584;-85
2021/12/23 05:47:48;;;;;;;54.65;29.92;;;;;;;;;;4993859;28;20053;-85
2021/12/23 05:50:15;;;;;;;51.05;30.15;;;;;;;;;;5010797;28;20049;-86
2021/12/23 05:52:40;;;;;;;48.60;29.73;;;;;;;;;;4993025;28;20081;-85
2021/12/23 05:55:06;;;;;;;54.03;31.67;;;;;;;;;;4997320;28;20014;-86
2021/12/23 05:57:31;;;;;;;54.05;31.20;;;;;;;;;;4993542;28;20084;-86
2021/12/23 05:59:57;;;;;;;47.67;28.85;;;;;;;;;;4994386;28;20025;-86
2021/12/23 06:02:22;;;;;;;50.17;31.00;;;;;;;;;;5011211;28;20037;-86
2021/12/23 06:04:47;;;;;;;45.30;27.63;;;;;;;;;;5011318;28;20476;-86
2021/12/23 06:07:12;;;;;;;51.00;31.27;;;;;;;;;;5011675;28;20256;-86
2021/12/23 06:09:38;;;;;;;50.58;30.05;;;;;;;;;;4998047;28;20048;-90
2021/12/23 06:12:03;;;;;;;46.53;28.25;;;;;;;;;;5014258;28;20453;-90
2021/12/23 06:14:28;;;;;;;49.28;28.15;;;;;;;;;;4996191;28;20033;-90
2021/12/23 06:16:54;;;;;;;48.05;28.08;;;;;;;;;;4996334;28;20105;-90
2021/12/23 06:19:19;;;;;;;50.55;27.00;;;;;;;;;;4994290;28;20403;-91
2021/12/23 06:21:44;;;;;;;49.38;28.75;;;;;;;;;;5012977;28;20026;-91
2021/12/23 06:24:09;;;;;;;52.80;30.40;;;;;;;;;;4995995;28;20447;-91
2021/12/23 06:26:34;;;;;;;49.70;29.97;;;;;;;;;;4995770;28;20429;-90
2021/12/23 06:29:00;;;;;;;48.25;30.30;;;;;;;;;;4995652;28;20389;-90
2021/12/23 06:31:25;;;;;;;51.65;32.38;;;;;;;;;;4995942;28;20117;-90
2021/12/23 06:33:50;;;;;;;48.35;29.08;;;;;;;;;;5013572;28;20022;-90
2021/12/23 06:36:18;;;;;;;50.47;30.95;;;;;;;;;;5011784;28;20136;-91
2021/12/23 06:41:19;;;;;;;51.13;31.08;;;;;;;;;;5356811;22;20127;-90
2021/12/23 06:43:45;;;;;;;50.80;29.25;;;;;;;;;;5036663;28;20388;-90
2021/12/23 06:46:11;;;;;;;49.60;27.30;;;;;;;;;;5031396;28;20031;-91
2021/12/23 06:54:11;;;;;;;47.70;29.75;;;;;;;;;;2420515;22;20461;-90
2021/12/23 06:56:37;;;;;;;49.65;30.00;;;;;;;;;;5033396;28;20139;-86
2021/12/23 06:59:02;;;;;;;48.25;29.67;;;;;;;;;;5063592;28;20125;-87
2021/12/23 07:01:27;;;;;;;53.53;31.30;;;;;;;;;;5054288;28;20024;-87
2021/12/23 07:07:09;;;;;;;47.60;29.85;;;;;;;;;;4990135;28;20037;-87
2021/12/23 07:09:38;;;;;;;47.97;28.92;;;;;;;;;;5051383;28;20170;-86
2021/12/23 07:12:04;;;;;;;47.33;28.58;;;;;;;;;;5053816;28;20037;-87
2021/12/23 07:14:29;;;;;;;45.00;27.40;;;;;;;;;;5053899;28;20036;-87
2021/12/23 07:16:54;;;;;;;48.88;30.52;;;;;;;;;;5053967;28;20020;-86
2021/12/23 07:19:20;;;;;;;48.00;26.17;;;;;;;;;;5072086;28;20012;-87
2021/12/23 07:21:45;;;;;;;50.38;28.05;;;;;;;;;;5053974;28;20255;-87
2021/12/23 07:24:10;;;;;;;45.10;27.90;;;;;;;;;;5053786;28;20724;-88
2021/12/23 07:26:35;;;;;;;46.60;26.95;;;;;;;;;;5054600;28;20361;-87
2021/12/23 07:29:01;;;;;;;48.13;27.92;;;;;;;;;;5072421;28;20036;-87
2021/12/23 07:31:26;;;;;;;46.35;28.67;;;;;;;;;;5071969;28;20040;-87
2021/12/23 07:33:51;;;;;;;46.97;28.08;;;;;;;;;;5072011;28;20046;-88
2021/12/23 07:36:17;;;;;;;47.28;27.33;;;;;;;;;;5054487;28;20027;-87
2021/12/23 07:38:42;;;;;;;49.15;28.42;;;;;;;;;;5053879;28;20020;-87
2021/12/23 07:41:08;;;;;;;47.88;29.17;;;;;;;;;;5053606;28;20051;-87
2021/12/23 07:46:02;;;;;;;49.72;30.33;;;;;;;;;;5071817;28;20029;-87
2021/12/23 07:48:27;;;;;;;52.20;30.90;;;;;;;;;;5071965;28;20028;-87
2021/12/23 07:50:53;;;;;;;50.75;27.45;;;;;;;;;;5053793;28;20028;-87
2021/12/23 07:53:18;;;;;;;52.63;31.33;;;;;;;;;;5053650;28;20135;-87
2021/12/23 07:55:44;;;;;;;49.78;28.48;;;;;;;;;;5071619;28;20777;-87
2021/12/23 07:58:09;;;;;;;50.73;30.00;;;;;;;;;;5052806;28;20024;-87
2021/12/23 08:00:35;;;;;;;58.75;32.75;;;;;;;;;;5053254;28;20297;-87
2021/12/23 08:03:00;;;;;;;55.58;33.35;;;;;;;;;;5071750;28;20074;-87
2021/12/23 08:05:25;;;;;;;62.95;33.17;;;;;;;;;;5053504;28;20048;-87
2021/12/23 08:07:50;;;;;;;56.05;34.30;;;;;;;;;;5072164;28;20032;-87
2021/12/23 08:10:16;;;;;;;52.58;30.10;;;;;;;;;;5071874;28;20096;-87
2021/12/23 08:12:41;;;;;;;52.65;32.90;;;;;;;;;;5054895;28;20051;-87
2021/12/23 08:15:06;;;;;;;48.53;29.38;;;;;;;;;;5073598;28;20025;-87
2021/12/23 08:17:32;;;;;;;50.95;28.48;;;;;;;;;;5072156;28;20037;-88
2021/12/23 08:19:57;;;;;;;52.17;29.23;;;;;;;;;;5054032;28;20070;-88
2021/12/23 08:22:22;;;;;;;53.45;29.35;;;;;;;;;;5072844;28;20787;-88
2021/12/23 08:24:47;;;;;;;52.53;30.02;;;;;;;;;;5054056;28;20523;-87
2021/12/23 08:27:13;;;;;;;50.35;27.90;;;;;;;;;;5053414;28;20365;-87
2021/12/23 08:29:38;;;;;;;60.13;34.08;;;;;;;;;;5053725;28;20073;-88
2021/12/23 08:32:03;;;;;;;47.28;27.23;;;;;;;;;;5072237;28;20392;-87
2021/12/23 08:34:29;;;;;;;47.95;26.27;;;;;;;;;;5073003;28;20096;-88
2021/12/23 08:36:54;;;;;;;45.20;26.38;;;;;;;;;;5073492;28;20472;-88
2021/12/23 08:39:19;;;;;;;48.03;28.92;;;;;;;;;;5072674;28;20054;-87
2021/12/23 08:41:45;;;;;;;47.47;26.83;;;;;;;;;;5054712;28;20028;-87
2021/12/23 08:44:10;;;;;;;46.15;29.50;;;;;;;;;;5072441;28;20032;-87
2021/12/23 08:46:36;;;;;;;47.13;29.52;;;;;;;;;;5054926;28;20161;-87
2021/12/23 08:49:01;;;;;;;49.00;28.30;;;;;;;;;;5072896;28;20388;-87
2021/12/23 08:51:26;;;;;;;49.70;29.50;;;;;;;;;;5054250;28;20153;-87
2021/12/23 08:53:51;;;;;;;47.42;28.70;;;;;;;;;;5072774;28;20031;-87
2021/12/23 08:56:17;;;;;;;50.57;28.50;;;;;;;;;;5072604;28;20049;-88
2021/12/23 08:58:42;;;;;;;50.50;29.23;;;;;;;;;;5071636;28;20379;-88
2021/12/23 09:01:08;;;;;;;49.58;29.30;;;;;;;;;;5071385;28;20259;-88
2021/12/23 09:03:33;;;;;;;43.67;25.77;;;;;;;;;;5052812;28;20031;-87
2021/12/23 09:05:59;;;;;;;52.08;29.83;;;;;;;;;;5072402;28;20029;-88
2021/12/23 09:08:26;;;;;;;50.10;29.65;;;;;;;;;;5054893;28;20025;-88
2021/12/23 09:10:51;;;;;;;47.40;29.55;;;;;;;;;;5053588;28;20530;-87
2021/12/23 09:13:16;;;;;;;50.42;28.77;;;;;;;;;;5054434;28;20012;-87
2021/12/23 09:15:41;;;;;;;47.60;28.95;;;;;;;;;;5072118;28;20473;-87
2021/12/23 09:18:07;;;;;;;44.72;26.88;;;;;;;;;;5072523;28;20618;-87
2021/12/23 09:20:32;;;;;;;47.22;26.25;;;;;;;;;;5071956;28;20024;-87
2021/12/23 09:22:57;;;;;;;44.42;25.15;;;;;;;;;;5072490;28;20476;-87
2021/12/23 09:25:24;;;;;;;44.15;24.67;;;;;;;;;;5053756;28;20533;-87
2021/12/23 09:33:04;;;;;;;44.50;26.15;;;;;;;;;;5072126;28;20035;-87
2021/12/23 09:35:30;;;;;;;52.50;30.30;;;;;;;;;;5072163;28;20778;-87
2021/12/23 09:37:56;;;;;;;44.17;28.45;;;;;;;;;;5071541;28;20027;-87
2021/12/23 09:40:23;;;;;;;45.70;27.17;;;;;;;;;;5052707;28;20103;-87
2021/12/23 09:42:49;;;;;;;47.25;27.05;;;;;;;;;;5070261;28;20021;-87
2021/12/23 09:45:18;;;;;;;48.90;28.52;;;;;;;;;;5070444;28;20062;-87
2021/12/23 09:47:45;;;;;;;45.13;26.95;;;;;;;;;;5052372;28;20392;-87
2021/12/23 09:50:11;;;;;;;49.70;28.67;;;;;;;;;;5070432;28;20067;-87
2021/12/23 09:52:40;;;;;;;47.63;28.15;;;;;;;;;;5070012;28;20044;-87
2021/12/23 09:55:06;;;;;;;48.33;28.67;;;;;;;;;;5051693;28;20072;-87
2021/12/23 09:57:31;;;;;;;46.78;27.25;;;;;;;;;;5051727;28;20396;-87
2021/12/23 09:59:57;;;;;;;43.85;26.45;;;;;;;;;;5069740;28;20055;-87
2021/12/23 10:02:22;;;;;;;43.55;26.65;;;;;;;;;;5051980;28;20092;-87
2021/12/23 10:04:47;;;;;;;39.33;26.40;;;;;;;;;;5070093;28;20771;-87
2021/12/23 10:07:12;;;;;;;39.17;25.20;;;;;;;;;;5071054;28;20289;-87
2021/12/23 10:12:57;;;;;;;39.90;25.63;;;;;;;;;;5069502;28;20036;-87
2021/12/23 10:31:32;;;;;;;39.83;24.83;;;;;;;;;;5071459;28;20039;-87
2021/12/23 10:37:20;;;;;;;41.95;24.00;;;;;;;;;;5052386;28;20086;-87
2021/12/23 10:39:50;;;;;;;40.13;25.08;;;;;;;;;;5070665;28;20539;-87
2021/12/23 10:42:18;;;;;;;41.42;25.98;;;;;;;;;;5052999;28;20208;-87
2021/12/23 10:44:49;;;;;;;38.58;24.23;;;;;;;;;;5071346;28;20175;-87
2021/12/23 10:47:36;;;;;;;38.00;23.38;;;;;;;;;;5071733;28;20017;-87
2021/12/23 10:50:14;;;;;;;39.38;22.33;;;;;;;;;;5053545;28;20031;-87
2021/12/23 10:53:05;;;;;;;36.00;22.73;;;;;;;;;;5051939;28;20033;-87
2021/12/23 10:58:16;;;;;;;41.55;25.92;;;;;;;;;;5069800;28;20039;-87
2021/12/23 11:00:45;;;;;;;36.22;23.17;;;;;;;;;;5052260;28;20058;-86
2021/12/23 11:03:25;;;;;;;38.45;24.48;;;;;;;;;;5053829;28;20044;-87
2021/12/23 11:06:04;;;;;;;37.10;23.73;;;;;;;;;;5071820;28;20019;-87
2021/12/23 11:30:58;;;;;;;38.97;23.50;;;;;;;;;;5050054;28;20702;-87
2021/12/23 11:38:31;;;;;;;41.75;24.90;;;;;;;;;;5073645;28;20040;-87
2021/12/23 11:41:00;;;;;;;44.80;26.05;;;;;;;;;;5054841;28;20021;-87
2021/12/23 11:43:31;;;;;;;44.67;25.92;;;;;;;;;;5055865;28;20024;-87
2021/12/23 11:45:56;;;;;;;41.80;25.55;;;;;;;;;;5073753;28;20036;-87
2021/12/23 11:48:22;;;;;;;46.30;26.85;;;;;;;;;;5073194;28;20024;-87
2021/12/23 11:53:43;;;;;;;37.78;25.27;;;;;;;;;;5055356;28;20028;-87
2021/12/23 11:56:10;;;;;;;42.67;25.27;;;;;;;;;;5053768;28;20071;-87
2021/12/23 11:58:41;;;;;;;40.83;25.80;;;;;;;;;;5054835;28;20020;-87
2021/12/23 12:01:08;;;;;;;46.20;29.17;;;;;;;;;;5055738;28;20020;-87
2021/12/23 12:03:51;;;;;;;46.88;27.75;;;;;;;;;;5073346;28;20031;-87
2021/12/23 12:06:18;;;;;;;46.00;25.15;;;;;;;;;;5054867;28;20021;-87
2021/12/23 12:08:43;;;;;;;49.72;27.98;;;;;;;;;;5057332;28;20016;-88
2021/12/23 12:11:20;;;;;;;45.97;26.58;;;;;;;;;;5057352;28;20454;-88
2021/12/23 12:13:46;;;;;;;52.28;28.80;;;;;;;;;;5074663;28;20021;-88
2021/12/23 12:16:28;;;;;;;43.67;27.30;;;;;;;;;;5056905;28;20023;-88
2021/12/23 12:18:53;;;;;;;44.20;25.58;;;;;;;;;;5074303;28;20021;-87
2021/12/23 12:21:33;;;;;;;42.53;25.58;;;;;;;;;;5074557;28;20483;-87
2021/12/23 12:24:12;;;;;;;48.35;26.45;;;;;;;;;;5073627;28;20024;-87
2021/12/23 12:26:51;;;;;;;41.88;24.90;;;;;;;;;;5053766;28;20029;-88
2021/12/23 12:29:18;;;;;;;38.90;24.95;;;;;;;;;;5052892;28;20027;-87
2021/12/23 12:31:44;;;;;;;40.63;24.80;;;;;;;;;;5070963;28;20451;-87
2021/12/23 12:34:10;;;;;;;33.88;22.30;;;;;;;;;;5052776;28;20087;-87
2021/12/23 12:36:53;;;;;;;41.17;23.17;;;;;;;;;;5071248;28;20021;-91
2021/12/23 12:39:24;;;;;;;36.28;23.63;;;;;;;;;;5050562;28;20074;-91
2021/12/23 12:41:52;;;;;;;36.90;23.17;;;;;;;;;;5053800;28;20556;-91
2021/12/23 12:44:27;;;;;;;32.97;22.08;;;;;;;;;;5052152;28;20107;-91
2021/12/23 12:49:40;;;;;;;40.65;23.35;;;;;;;;;;5075509;28;20066;-91
2021/12/23 12:52:13;;;;;;;36.63;23.42;;;;;;;;;;5035081;28;20033;-90
2021/12/23 12:54:45;;;;;;;35.42;21.77;;;;;;;;;;5053796;28;20044;-90
2021/12/23 12:57:12;;;;;;;37.63;21.63;;;;;;;;;;5053906;28;20070;-90
2021/12/23 12:59:42;;;;;;;36.65;23.15;;;;;;;;;;5052287;28;20024;-90
2021/12/23 13:02:26;;;;;;;33.72;22.13;;;;;;;;;;5055104;28;20044;-91
2021/12/23 13:04:57;;;;;;;37.03;23.40;;;;;;;;;;5055725;28;20040;-89
2021/12/23 13:07:24;;;;;;;37.03;23.67;;;;;;;;;;5057447;28;20024;-90
2021/12/23 13:09:52;;;;;;;35.10;22.88;;;;;;;;;;5074654;28;20021;-89
2021/12/23 13:12:29;;;;;;;37.17;23.60;;;;;;;;;;5072299;28;20086;-89
2021/12/23 13:15:15;;;;;;;34.78;22.50;;;;;;;;;;5074460;28;20017;-89
2021/12/23 13:17:44;;;;;;;32.05;21.05;;;;;;;;;;5056524;28;20111;-89
2021/12/23 13:20:09;;;;;;;32.65;21.67;;;;;;;;;;5056675;28;20024;-89
2021/12/23 13:22:35;;;;;;;38.55;24.13;;;;;;;;;;5053810;28;20023;-87
2021/12/23 13:25:02;;;;;;;39.60;24.70;;;;;;;;;;5070625;28;20016;-86
2021/12/23 13:27:27;;;;;;;40.05;24.33;;;;;;;;;;5052647;28;20783;-86
2021/12/23 13:30:00;;;;;;;38.90;24.10;;;;;;;;;;5069755;28;20036;-87
2021/12/23 13:32:25;;;;;;;38.97;24.27;;;;;;;;;;5051309;28;20040;-87
2021/12/23 13:34:50;;;;;;;40.08;25.90;;;;;;;;;;5069506;28;20019;-86
2021/12/23 13:37:15;;;;;;;43.40;26.98;;;;;;;;;;5051392;28;20044;-86
2021/12/23 13:39:41;;;;;;;40.70;25.57;;;;;;;;;;5051253;28;20028;-85
2021/12/23 13:42:07;;;;;;;49.45;27.63;;;;;;;;;;5051359;28;20267;-86
2021/12/23 13:44:43;;;;;;;48.58;28.60;;;;;;;;;;5069209;28;20037;-85
2021/12/23 13:47:13;;;;;;;45.75;28.15;;;;;;;;;;5069465;28;20024;-86
2021/12/23 13:49:47;;;;;;;46.83;28.67;;;;;;;;;;5069228;28;20027;-86
2021/12/23 13:52:18;;;;;;;47.55;31.20;;;;;;;;;;5069353;28;20032;-86
2021/12/23 13:54:43;;;;;;;48.15;29.80;;;;;;;;;;5050920;28;20040;-86
2021/12/23 13:57:14;;;;;;;66.28;39.65;;;;;;;;;;5050740;28;20717;-86
2021/12/23 13:59:41;;;;;;;56.45;32.95;;;;;;;;;;5050749;28;20020;-86
2021/12/23 14:02:10;;;;;;;45.40;30.98;;;;;;;;;;5051059;28;20059;-86
2021/12/23 14:04:35;;;;;;;49.58;32.03;;;;;;;;;;5068706;28;20024;-86
2021/12/23 14:07:05;;;;;;;48.47;31.33;;;;;;;;;;5069085;28;20089;-86
2021/12/23 14:09:30;;;;;;;55.05;32.80;;;;;;;;;;5050247;28;20043;-85
2021/12/23 14:11:56;;;;;;;52.83;34.17;;;;;;;;;;5068173;28;20064;-85
2021/12/23 14:14:21;;;;;;;57.80;37.17;;;;;;;;;;5068244;28;20050;-86
2021/12/23 14:16:47;;;;;;;56.58;36.20;;;;;;;;;;5069107;28;20024;-86
2021/12/23 14:19:25;;;;;;;54.72;32.75;;;;;;;;;;5068101;28;20029;-85
2021/12/23 14:24:34;;;;;;;54.05;34.03;;;;;;;;;;5068935;28;20157;-87
2021/12/23 14:26:59;;;;;;;54.78;34.90;;;;;;;;;;5051708;28;20055;-86
2021/12/23 14:29:30;;;;;;;52.20;33.13;;;;;;;;;;5069455;28;20090;-86
2021/12/23 14:31:55;;;;;;;54.50;32.13;;;;;;;;;;5050570;28;20028;-86
2021/12/23 14:34:24;;;;;;;60.60;37.30;;;;;;;;;;5068316;28;20480;-86
2021/12/23 14:36:50;;;;;;;59.15;34.22;;;;;;;;;;5068363;28;20086;-86
2021/12/23 14:39:20;;;;;;;49.72;31.73;;;;;;;;;;5068542;28;20557;-86
2021/12/23 14:41:55;;;;;;;67.03;40.17;;;;;;;;;;5050275;28;20016;-86
2021/12/23 14:44:21;;;;;;;67.25;39.45;;;;;;;;;;5050416;28;20016;-86
2021/12/23 14:46:57;;;;;;;63.63;34.70;;;;;;;;;;5049566;28;20021;-85
2021/12/23 14:49:40;;;;;;;56.97;33.30;;;;;;;;;;5067669;28;20436;-86
2021/12/23 14:52:13;;;;;;;48.90;31.65;;;;;;;;;;5067571;28;20369;-85
2021/12/23 14:54:49;;;;;;;57.03;33.00;;;;;;;;;;5067258;28;20563;-85
2021/12/23 14:57:15;;;;;;;55.13;31.52;;;;;;;;;;5067445;28;20020;-85
2021/12/23 14:59:44;;;;;;;58.97;35.72;;;;;;;;;;5068148;28;20040;-86
2021/12/23 15:02:09;;;;;;;57.50;33.40;;;;;;;;;;5049817;28;20025;-84
2021/12/23 15:04:35;;;;;;;64.57;38.38;;;;;;;;;;5049477;28;20094;-85
2021/12/23 15:07:01;;;;;;;66.93;40.88;;;;;;;;;;5050216;28;20024;-85
2021/12/23 15:09:28;;;;;;;52.47;32.67;;;;;;;;;;5071432;28;20039;-86
2021/12/23 15:11:54;;;;;;;58.85;37.58;;;;;;;;;;5053222;28;20090;-85
2021/12/23 15:14:19;;;;;;;55.78;36.53;;;;;;;;;;5071495;28;20028;-85
2021/12/23 15:16:45;;;;;;;65.47;41.28;;;;;;;;;;5053595;28;20357;-86
2021/12/23 15:19:17;;;;;;;59.40;36.95;;;;;;;;;;5053835;28;20040;-86
2021/12/23 15:21:56;;;;;;;57.22;36.42;;;;;;;;;;5053886;28;20028;-86
2021/12/23 15:24:23;;;;;;;60.30;36.83;;;;;;;;;;5053142;28;20833;-86
2021/12/23 15:26:49;;;;;;;58.78;38.97;;;;;;;;;;5053840;28;20657;-87
2021/12/23 15:29:17;;;;;;;56.38;37.65;;;;;;;;;;5072835;28;20059;-87
2021/12/23 15:31:50;;;;;;;67.47;41.63;;;;;;;;;;5053662;28;20032;-87
2021/12/23 15:34:15;;;;;;;64.85;37.60;;;;;;;;;;5054009;28;20042;-87
2021/12/23 15:36:41;;;;;;;88.18;47.60;;;;;;;;;;5071601;28;20020;-87
2021/12/23 15:39:21;;;;;;;60.95;39.17;;;;;;;;;;5071345;28;20028;-87
2021/12/23 15:41:47;;;;;;;63.53;40.42;;;;;;;;;;5071602;28;20025;-87